Time;durP1;ratioP1;P1;durP2;ratioP2;P2;SDS_P1;SDS_P2;PMS_P1;PMS_P2;Temp;Humidity;BMP_temperature;BMP_pressure;BME280_temperature;BME280_humidity;BME280_pressure;Samples;Min_cycle;Max_cycle;Signal;HPM_P1;HPM_P2
2022/06/22 00:02:19;;;;;;;8.88;5.40;;;28.30;78.60;;;;;;6340011;22;19999;-80
2022/06/22 00:04:54;;;;;;;9.88;6.93;;;28.10;79.60;;;;;;6339495;22;19996;-80
2022/06/22 00:07:28;;;;;;;8.70;5.68;;;28.00;80.10;;;;;;6339567;22;20002;-80
2022/06/22 00:10:18;;;;;;;7.38;5.78;;;28.00;80.50;;;;;;6340051;22;19998;-80
2022/06/22 00:12:51;;;;;;;8.13;6.75;;;28.10;80.00;;;;;;6311985;22;20003;-79
2022/06/22 00:15:42;;;;;;;13.90;8.93;;;28.00;81.30;;;;;;6339492;22;20078;-80
2022/06/22 00:18:27;;;;;;;9.05;6.50;;;27.90;82.30;;;;;;6311584;22;20010;-80
2022/06/22 00:20:59;;;;;;;15.35;12.38;;;28.00;81.10;;;;;;6339686;22;20025;-80
2022/06/22 00:23:46;;;;;;;8.90;8.00;;;27.80;82.20;;;;;;6339042;22;20029;-80
2022/06/22 00:26:23;;;;;;;10.38;8.85;;;27.80;81.80;;;;;;6339139;22;20078;-80
2022/06/22 00:29:04;;;;;;;11.48;8.63;;;27.80;81.50;;;;;;6339684;22;20006;-80
2022/06/22 00:31:40;;;;;;;9.95;8.15;;;27.80;81.60;;;;;;6339707;22;20409;-81
2022/06/22 00:34:09;;;;;;;12.68;10.90;;;27.70;81.70;;;;;;6339665;22;20436;-83
2022/06/22 00:36:43;;;;;;;10.68;8.15;;;27.60;81.70;;;;;;6311906;22;20341;-83
2022/06/22 00:39:25;;;;;;;16.02;10.85;;;27.60;81.60;;;;;;6339295;22;20417;-82
2022/06/22 00:42:00;;;;;;;8.93;6.97;;;27.50;80.40;;;;;;6339709;22;20333;-83
2022/06/22 00:44:29;;;;;;;11.27;7.35;;;27.50;79.60;;;;;;6339515;22;20405;-82
2022/06/22 00:47:10;;;;;;;8.43;5.68;;;27.50;78.00;;;;;;6339112;22;20002;-81
2022/06/22 00:49:42;;;;;;;10.48;6.80;;;27.30;78.00;;;;;;6339338;22;19994;-80
2022/06/22 00:52:08;;;;;;;5.93;4.78;;;27.20;77.70;;;;;;6339746;22;20367;-80
2022/06/22 00:54:36;;;;;;;14.07;4.22;;;27.20;78.20;;;;;;6339561;22;19995;-80
2022/06/22 00:57:19;;;;;;;9.00;4.90;;;27.30;78.30;;;;;;6339089;22;20003;-80
2022/06/22 01:00:13;;;;;;;5.90;3.72;;;27.40;78.90;;;;;;6339039;22;19995;-79
2022/06/22 01:02:55;;;;;;;11.15;6.30;;;27.30;78.80;;;;;;6338885;22;19987;-80
2022/06/22 01:05:36;;;;;;;7.03;4.65;;;27.20;78.20;;;;;;6339261;22;20002;-80
2022/06/22 01:08:38;;;;;;;5.72;4.00;;;27.10;78.40;;;;;;6338900;22;20069;-80
2022/06/22 01:12:16;;;;;;;10.13;5.03;;;27.20;78.70;;;;;;6339130;22;20063;-80
2022/06/22 01:13:55;;;;;;;;;;;27.20;78.60;;;;;;6339655;22;20033;-80
2022/06/22 01:16:28;;;;;;;9.00;5.05;;;26.90;79.00;;;;;;6338975;22;19926;-81
2022/06/22 01:19:03;;;;;;;11.65;6.40;;;26.90;78.80;;;;;;6338996;22;20002;-80
2022/06/22 01:21:37;;;;;;;6.95;4.60;;;26.90;79.00;;;;;;6339366;22;19995;-80
2022/06/22 01:24:30;;;;;;;6.50;4.22;;;26.80;79.00;;;;;;6339012;22;20405;-79
2022/06/22 01:27:17;;;;;;;6.90;4.50;;;26.70;79.10;;;;;;6338829;22;19998;-81
2022/06/22 01:29:55;;;;;;;9.27;5.70;;;26.60;79.30;;;;;;6339238;22;19995;-80
2022/06/22 01:32:25;;;;;;;6.68;4.57;;;26.60;79.00;;;;;;6339148;22;20309;-80
2022/06/22 01:34:56;;;;;;;11.32;5.78;;;26.50;79.20;;;;;;6338867;22;19995;-80
2022/06/22 01:37:29;;;;;;;10.98;5.50;;;26.40;79.20;;;;;;6338379;22;20002;-80
2022/06/22 01:40:19;;;;;;;18.55;6.50;;;26.30;79.20;;;;;;6338741;22;20041;-80
2022/06/22 01:42:57;;;;;;;15.32;7.35;;;26.30;79.30;;;;;;6338130;22;20038;-79
2022/06/22 01:45:37;;;;;;;9.40;4.75;;;26.00;80.10;;;;;;6338848;22;20102;-79
2022/06/22 01:48:22;;;;;;;5.88;3.83;;;25.90;80.30;;;;;;6338366;22;20006;-79
2022/06/22 01:51:18;;;;;;;9.75;5.82;;;26.10;80.00;;;;;;6338799;22;20408;-79
2022/06/22 01:54:05;;;;;;;7.90;4.60;;;26.10;79.30;;;;;;6338913;22;20082;-79
2022/06/22 01:56:49;;;;;;;9.05;4.82;;;25.90;79.40;;;;;;6338637;22;20078;-80
2022/06/22 01:59:45;;;;;;;10.63;5.13;;;26.00;79.10;;;;;;6338854;22;20003;-79
2022/06/22 02:02:16;;;;;;;7.05;4.10;;;26.00;78.70;;;;;;6337531;22;20031;-79
2022/06/22 02:04:54;;;;;;;6.95;3.58;;;26.00;78.30;;;;;;6338624;22;20003;-79
2022/06/22 02:07:45;;;;;;;7.25;3.75;;;26.20;78.00;;;;;;6338960;22;20294;-79
2022/06/22 02:10:32;;;;;;;8.55;4.25;;;26.30;77.20;;;;;;6338733;22;20029;-81
2022/06/22 02:13:17;;;;;;;6.35;3.60;;;26.20;76.90;;;;;;6338536;22;20007;-81
2022/06/22 02:16:04;;;;;;;4.75;3.08;;;26.30;76.80;;;;;;6338985;22;20002;-81
2022/06/22 02:18:42;;;;;;;9.23;4.55;;;26.40;76.50;;;;;;6338525;22;20005;-81
2022/06/22 02:21:35;;;;;;;6.07;3.08;;;26.40;76.10;;;;;;6311017;22;20003;-83
2022/06/22 02:24:27;;;;;;;9.15;4.60;;;26.50;76.10;;;;;;6323290;22;20375;-82
2022/06/22 02:26:57;;;;;;;4.72;3.03;;;26.40;75.50;;;;;;6338547;22;19999;-82
2022/06/22 02:29:36;;;;;;;3.95;3.08;;;26.40;75.80;;;;;;6338452;22;20030;-83
2022/06/22 02:32:06;;;;;;;7.78;3.53;;;26.40;75.60;;;;;;6339523;22;19999;-85
2022/06/22 02:34:33;;;;;;;4.85;3.15;;;26.50;75.60;;;;;;6338791;22;19999;-84
2022/06/22 02:37:03;;;;;;;6.32;3.05;;;26.50;75.50;;;;;;6339441;22;20052;-85
2022/06/22 02:39:31;;;;;;;;;;;26.50;75.40;;;;;;6339624;22;19999;-84
2022/06/22 02:44:46;;;;;;;7.25;4.13;;;26.40;75.40;;;;;;6339095;22;20425;-85
2022/06/22 02:47:29;;;;;;;5.65;3.38;;;26.40;75.70;;;;;;6339138;22;20029;-85
2022/06/22 02:50:36;;;;;;;5.75;3.45;;;26.40;76.00;;;;;;6339248;22;20006;-84
2022/06/22 02:53:10;;;;;;;8.52;4.88;;;26.40;76.20;;;;;;6338973;22;20002;-84
2022/06/22 02:55:36;;;;;;;6.75;3.60;;;26.20;76.90;;;;;;6339539;22;20006;-85
2022/06/22 02:58:22;;;;;;;7.65;3.60;;;26.20;76.40;;;;;;6339114;22;20067;-86
2022/06/22 03:00:47;;;;;;;4.53;3.50;;;26.20;76.50;;;;;;6339233;22;19995;-86
2022/06/22 03:03:16;;;;;;;7.75;4.18;;;26.30;76.70;;;;;;6340287;22;20014;-81
2022/06/22 03:05:45;;;;;;;6.28;3.65;;;26.30;76.50;;;;;;6340271;22;20006;-80
2022/06/22 03:08:13;;;;;;;5.33;3.67;;;26.40;76.50;;;;;;6340456;22;20004;-80
2022/06/22 03:10:47;;;;;;;8.52;3.97;;;26.40;76.40;;;;;;6340077;22;20224;-79
2022/06/22 03:13:20;;;;;;;8.27;4.07;;;26.40;76.40;;;;;;6339865;22;20026;-79
2022/06/22 03:15:47;;;;;;;9.82;5.47;;;26.30;76.60;;;;;;6340336;22;20051;-80
2022/06/22 03:18:26;;;;;;;6.18;4.05;;;25.80;78.20;;;;;;6312644;22;20002;-79
2022/06/22 03:21:00;;;;;;;11.85;6.60;;;25.70;78.50;;;;;;6339963;22;20007;-79
2022/06/22 03:23:39;;;;;;;14.77;7.68;;;25.50;79.50;;;;;;6339997;22;19998;-80
2022/06/22 03:26:19;;;;;;;9.55;6.55;;;25.10;80.60;;;;;;6339888;22;20002;-79
2022/06/22 03:28:56;;;;;;;7.80;4.43;;;25.10;80.70;;;;;;6340128;22;20371;-79
2022/06/22 03:31:44;;;;;;;8.60;4.20;;;25.30;80.50;;;;;;6339791;22;20003;-79
2022/06/22 03:34:22;;;;;;;9.23;4.80;;;25.40;79.90;;;;;;6339011;22;20037;-79
2022/06/22 03:36:57;;;;;;;6.72;3.97;;;25.50;79.30;;;;;;6340334;22;19999;-79
2022/06/22 03:39:30;;;;;;;7.72;4.20;;;25.60;78.80;;;;;;6312557;22;20007;-79
2022/06/22 03:42:05;;;;;;;9.38;5.20;;;25.70;78.30;;;;;;6339280;22;20037;-79
2022/06/22 03:44:46;;;;;;;7.10;3.35;;;25.70;77.80;;;;;;6339996;22;19998;-79
2022/06/22 03:47:23;;;;;;;10.85;5.35;;;25.80;77.80;;;;;;6339589;22;20026;-79
2022/06/22 03:50:09;;;;;;;5.40;3.42;;;25.70;77.80;;;;;;6339867;22;20498;-79
2022/06/22 03:53:14;;;;;;;8.38;3.63;;;25.80;77.80;;;;;;6340200;22;20006;-80
2022/06/22 03:55:46;;;;;;;6.78;3.30;;;25.90;77.50;;;;;;6306221;22;20092;-80
2022/06/22 03:58:12;;;;;;;9.50;3.97;;;25.90;77.30;;;;;;6339452;22;20084;-80
2022/06/22 04:00:41;;;;;;;7.45;3.20;;;25.90;77.40;;;;;;6339781;22;20001;-79
2022/06/22 04:03:08;;;;;;;10.18;4.05;;;25.90;77.10;;;;;;6339891;22;20002;-79
2022/06/22 04:05:50;;;;;;;13.00;6.22;;;26.00;77.30;;;;;;6339360;22;20003;-79
2022/06/22 04:08:24;;;;;;;11.95;4.93;;;26.00;76.80;;;;;;6339787;22;20010;-79
2022/06/22 04:11:08;;;;;;;7.13;3.50;;;25.60;77.80;;;;;;6311907;22;20371;-79
2022/06/22 04:13:42;;;;;;;9.95;4.32;;;25.50;77.90;;;;;;6339072;22;20026;-79
2022/06/22 04:16:22;;;;;;;6.53;3.35;;;25.50;78.20;;;;;;6339422;22;20440;-80
2022/06/22 04:18:56;;;;;;;4.20;3.15;;;25.50;78.10;;;;;;6339246;22;20282;-80
2022/06/22 04:21:36;;;;;;;7.57;3.47;;;25.60;77.70;;;;;;6339839;22;20002;-82
2022/06/22 04:24:24;;;;;;;6.78;3.58;;;25.70;77.10;;;;;;6339545;22;20002;-79
2022/06/22 04:27:09;;;;;;;10.55;3.65;;;25.70;76.80;;;;;;6339682;22;19995;-79
2022/06/22 04:29:37;;;;;;;6.55;3.42;;;25.80;76.10;;;;;;6339639;22;19999;-78
2022/06/22 04:32:19;;;;;;;7.75;2.90;;;25.90;75.80;;;;;;6339275;22;20162;-78
2022/06/22 04:34:59;;;;;;;7.07;3.10;;;26.00;75.70;;;;;;6338682;22;20401;-77
2022/06/22 04:37:35;;;;;;;8.75;3.63;;;26.00;75.50;;;;;;6338915;22;20317;-77
2022/06/22 04:40:31;;;;;;;6.68;3.30;;;26.10;75.60;;;;;;6339184;22;19995;-80
2022/06/22 04:43:00;;;;;;;5.68;2.75;;;26.20;74.40;;;;;;6339268;22;20066;-80
2022/06/22 04:45:30;;;;;;;5.55;2.63;;;26.10;74.10;;;;;;6339645;22;19994;-80
2022/06/22 04:48:00;;;;;;;;;;;26.10;73.90;;;;;;6339824;22;20003;-80
2022/06/22 04:50:26;;;;;;;;;;;26.10;73.10;;;;;;6339671;22;20213;-78
2022/06/22 04:52:54;;;;;;;;;;;26.10;73.70;;;;;;6340234;22;20282;-79
2022/06/22 04:55:22;;;;;;;;;;;26.10;73.60;;;;;;6339899;22;20280;-78
2022/06/22 04:57:49;;;;;;;;;;;26.20;73.20;;;;;;6339746;22;19902;-79
2022/06/22 05:00:20;;;;;;;;;;;26.20;73.30;;;;;;6339321;22;19909;-79
2022/06/22 05:02:48;;;;;;;;;;;26.20;73.10;;;;;;6339685;22;19899;-78
2022/06/22 05:05:24;;;;;;;;;;;26.10;73.40;;;;;;6339467;22;19962;-78
2022/06/22 05:07:52;;;;;;;;;;;26.20;73.40;;;;;;6339547;22;19899;-79
2022/06/22 05:10:18;;;;;;;;;;;26.30;73.10;;;;;;6311887;22;19898;-79
2022/06/22 05:12:48;;;;;;;;;;;26.30;72.80;;;;;;6340048;22;19921;-80
2022/06/22 05:15:19;;;;;;;;;;;26.40;72.70;;;;;;6339537;22;19898;-80
2022/06/22 05:17:45;;;;;;;;;;;26.40;72.80;;;;;;6339234;22;19995;-80
2022/06/22 05:20:14;;;;;;;;;;;26.40;72.30;;;;;;6311911;22;20320;-80
2022/06/22 05:22:40;;;;;;;;;;;26.50;72.80;;;;;;6339735;22;20370;-79
2022/06/22 05:25:07;;;;;;;;;;;26.50;72.70;;;;;;6339503;22;19898;-79
2022/06/22 05:27:38;;;;;;;;;;;26.50;72.80;;;;;;6312213;22;19909;-79
2022/06/22 05:30:05;;;;;;;;;;;26.60;72.80;;;;;;6311703;22;20345;-79
2022/06/22 05:32:51;;;;;;;;;;;26.60;72.80;;;;;;6339351;22;19926;-80
2022/06/22 05:35:21;;;;;;;;;;;26.60;73.00;;;;;;6338907;22;20316;-79
2022/06/22 05:37:50;;;;;;;;;;;26.70;73.10;;;;;;6339257;22;19947;-79
2022/06/22 05:40:17;;;;;;;;;;;26.70;73.70;;;;;;6339140;22;19898;-79
2022/06/22 05:42:43;;;;;;;;;;;26.60;74.40;;;;;;6339063;22;19910;-79
2022/06/22 05:45:20;;;;;;;;;;;26.60;74.70;;;;;;6339495;22;19906;-79
2022/06/22 05:47:45;;;;;;;;;;;26.60;74.80;;;;;;6339522;22;20331;-79
2022/06/22 05:50:17;;;;;;;;;;;26.60;75.50;;;;;;6311760;22;19969;-79
2022/06/22 05:52:46;;;;;;;;;;;26.60;76.60;;;;;;6340120;22;19929;-80
2022/06/22 05:55:18;;;;;;;;;;;26.50;76.10;;;;;;6339280;22;19910;-79
2022/06/22 05:57:52;;;;;;;;;;;26.50;76.40;;;;;;6338721;22;19906;-79
2022/06/22 06:00:18;;;;;;;;;;;26.60;76.00;;;;;;6339221;22;19949;-79
2022/06/22 06:02:55;;;;;;;;;;;26.60;75.90;;;;;;6339784;22;19898;-80
2022/06/22 06:05:26;;;;;;;;;;;26.70;76.00;;;;;;6339846;22;19945;-80
2022/06/22 06:07:53;;;;;;;;;;;26.70;76.30;;;;;;6311571;22;19985;-79
2022/06/22 06:10:30;;;;;;;;;;;26.70;76.20;;;;;;6338618;22;20320;-79
2022/06/22 06:13:04;;;;;;;;;;;26.80;76.30;;;;;;6339403;22;19902;-79
2022/06/22 06:15:34;;;;;;;;;;;26.80;76.30;;;;;;6339267;22;19963;-78
2022/06/22 06:18:01;;;;;;;;;;;26.80;76.50;;;;;;6339054;22;19906;-78
2022/06/22 06:20:34;;;;;;;;;;;26.80;76.50;;;;;;6339171;22;19986;-78
2022/06/22 06:23:03;;;;;;;;;;;26.80;76.70;;;;;;6339164;22;20213;-78
2022/06/22 06:28:17;;;;;;;;;;;26.80;76.70;;;;;;6339188;22;19905;-77
2022/06/22 06:30:44;;;;;;;;;;;26.70;76.80;;;;;;6339100;22;19903;-78
2022/06/22 06:33:19;;;;;;;;;;;26.70;76.70;;;;;;6339205;22;19898;-78
2022/06/22 06:35:44;;;;;;;;;;;26.80;76.70;;;;;;6339214;22;19902;-78
2022/06/22 06:38:29;;;;;;;;;;;26.80;76.60;;;;;;6340732;22;19902;-77
2022/06/22 06:41:01;;;;;;;;;;;26.70;76.80;;;;;;6340901;22;19938;-78
2022/06/22 06:43:27;;;;;;;;;;;26.60;77.30;;;;;;6341088;22;19977;-78
2022/06/22 06:45:53;;;;;;;;;;;26.60;77.40;;;;;;6340840;22;19934;-77
2022/06/22 06:48:24;;;;;;;;;;;26.60;78.00;;;;;;6320937;22;20167;-78
2022/06/22 06:50:51;;;;;;;;;;;26.70;77.40;;;;;;6337863;22;19903;-77
2022/06/22 06:53:20;;;;;;;;;;;26.70;77.30;;;;;;6336622;22;19902;-78
2022/06/22 06:55:52;;;;;;;;;;;26.80;77.30;;;;;;6338889;22;19910;-77
2022/06/22 06:58:43;;;;;;;;;;;26.90;77.80;;;;;;6337822;22;19906;-78
2022/06/22 07:01:15;;;;;;;;;;;26.90;77.10;;;;;;6334351;22;20016;-78
2022/06/22 07:03:41;;;;;;;;;;;26.90;76.70;;;;;;6339407;22;20305;-77
2022/06/22 07:06:07;;;;;;;;;;;26.90;76.80;;;;;;6339481;22;19937;-78
2022/06/22 07:08:55;;;;;;;;;;;27.00;76.90;;;;;;6339255;22;20215;-78
2022/06/22 07:11:31;;;;;;;;;;;27.00;76.60;;;;;;6326415;22;19898;-77
2022/06/22 07:14:00;;;;;;;;;;;27.00;76.60;;;;;;6311716;22;19898;-78
2022/06/22 07:16:25;;;;;;;;;;;27.00;76.60;;;;;;6339313;22;19963;-77
2022/06/22 07:19:13;;;;;;;;;;;26.90;76.70;;;;;;6339319;22;19993;-77
2022/06/22 07:21:48;;;;;;;;;;;26.90;77.00;;;;;;6340174;22;20239;-77
2022/06/22 07:24:14;;;;;;;;;;;26.90;76.70;;;;;;6339763;22;20234;-78
2022/06/22 07:26:46;;;;;;;;;;;26.90;76.50;;;;;;6340268;22;19903;-77
2022/06/22 07:29:16;;;;;;;;;;;27.00;76.60;;;;;;6339695;22;19906;-77
2022/06/22 07:31:47;;;;;;;;;;;27.10;76.90;;;;;;6339575;22;19903;-77
2022/06/22 07:34:15;;;;;;;;;;;27.20;76.50;;;;;;6340509;22;19902;-78
2022/06/22 07:36:45;;;;;;;;;;;27.30;76.00;;;;;;6340660;22;19903;-77
2022/06/22 07:39:19;;;;;;;;;;;27.30;75.50;;;;;;6340501;22;20229;-77
2022/06/22 07:41:44;;;;;;;;;;;27.30;75.00;;;;;;6339646;22;19910;-77
2022/06/22 07:44:16;;;;;;;;;;;27.30;75.40;;;;;;6340027;22;19976;-78
2022/06/22 07:46:48;;;;;;;;;;;27.30;74.50;;;;;;6340244;22;19906;-77
2022/06/22 07:49:23;;;;;;;;;;;27.40;74.50;;;;;;6340025;22;19899;-77
2022/06/22 07:52:01;;;;;;;;;;;27.40;74.10;;;;;;6333753;22;20286;-77
2022/06/22 07:54:32;;;;;;;;;;;27.40;73.60;;;;;;6338517;22;20274;-77
2022/06/22 07:57:16;;;;;;;;;;;27.50;72.70;;;;;;6339449;22;19898;-77
2022/06/22 07:59:50;;;;;;;;;;;27.50;73.50;;;;;;6339307;22;20305;-78
2022/06/22 08:02:28;;;;;;;;;;;27.60;73.90;;;;;;6339004;22;20426;-77
2022/06/22 08:04:57;;;;;;;;;;;27.70;73.30;;;;;;6339187;22;20343;-77
2022/06/22 08:07:37;;;;;;;;;;;27.80;72.80;;;;;;6338594;22;20263;-77
2022/06/22 08:10:16;;;;;;;;;;;27.80;72.70;;;;;;6339273;22;19910;-78
2022/06/22 08:12:47;;;;;;;;;;;27.80;72.50;;;;;;6339407;22;19899;-77
2022/06/22 08:15:15;;;;;;;;;;;27.90;71.50;;;;;;6339352;22;19977;-77
2022/06/22 08:17:43;;;;;;;;;;;27.90;71.90;;;;;;6338997;22;19902;-78
2022/06/22 08:20:14;;;;;;;;;;;28.00;70.70;;;;;;6310754;22;19898;-78
2022/06/22 08:22:44;;;;;;;;;;;28.00;70.60;;;;;;6338895;22;19899;-78
2022/06/22 08:25:10;;;;;;;;;;;28.10;70.30;;;;;;6338632;22;20298;-78
2022/06/22 08:27:37;;;;;;;;;;;28.10;68.50;;;;;;6339073;22;19924;-77
2022/06/22 08:30:03;;;;;;;;;;;28.10;68.90;;;;;;6339100;22;19898;-77
2022/06/22 08:32:34;;;;;;;;;;;28.10;68.70;;;;;;6339159;22;19909;-78
2022/06/22 08:35:07;;;;;;;;;;;28.10;67.70;;;;;;6338931;22;19898;-77
2022/06/22 08:37:35;;;;;;;;;;;28.10;68.20;;;;;;6339189;22;19911;-77
2022/06/22 08:40:05;;;;;;;;;;;28.10;68.20;;;;;;6339132;22;19913;-77
2022/06/22 08:42:34;;;;;;;;;;;28.20;68.10;;;;;;6311158;22;19997;-78
2022/06/22 08:45:20;;;;;;;;;;;28.20;66.60;;;;;;6339818;22;19960;-77
2022/06/22 08:47:45;;;;;;;;;;;28.20;66.10;;;;;;6322312;22;19948;-78
2022/06/22 08:50:11;;;;;;;;;;;28.20;66.90;;;;;;6338783;22;19902;-78
2022/06/22 08:52:57;;;;;;;;;;;28.20;66.10;;;;;;6338854;22;19898;-78
2022/06/22 08:55:40;;;;;;;;;;;28.10;65.90;;;;;;6338777;22;20313;-78
2022/06/22 08:58:25;;;;;;;;;;;28.10;66.60;;;;;;6338825;22;19906;-77
2022/06/22 09:00:56;;;;;;;;;;;28.10;67.00;;;;;;6338626;22;20293;-78
2022/06/22 09:03:31;;;;;;;;;;;28.10;67.00;;;;;;6310816;22;19905;-78
2022/06/22 09:05:59;;;;;;;;;;;28.10;66.70;;;;;;6339467;22;19952;-79
2022/06/22 09:08:43;;;;;;;;;;;28.10;66.80;;;;;;6338896;22;19981;-76
2022/06/22 09:11:27;;;;;;;;;;;28.10;67.00;;;;;;6311425;22;20225;-78
2022/06/22 09:14:07;;;;;;;;;;;28.00;67.10;;;;;;6339097;22;20361;-79
2022/06/22 09:16:35;;;;;;;;;;;27.90;67.40;;;;;;6339543;22;19902;-80
2022/06/22 09:19:01;;;;;;;;;;;27.90;68.80;;;;;;6338643;22;19902;-80
2022/06/22 09:21:31;;;;;;;;;;;27.90;69.10;;;;;;6338705;22;19955;-78
2022/06/22 09:24:00;;;;;;;;;;;27.90;69.60;;;;;;6338760;22;19905;-78
2022/06/22 09:26:25;;;;;;;;;;;27.90;71.20;;;;;;6338689;22;20296;-78
2022/06/22 09:28:59;;;;;;;;;;;27.90;72.10;;;;;;6311003;22;19906;-78
2022/06/22 09:31:50;;;;;;;;;;;27.90;71.40;;;;;;6338694;22;19906;-78
2022/06/22 09:34:19;;;;;;;;;;;27.90;72.70;;;;;;6338712;22;19902;-78
2022/06/22 09:36:54;;;;;;;;;;;27.90;73.00;;;;;;6339388;22;19949;-78
2022/06/22 09:39:22;;;;;;;;;;;27.90;73.30;;;;;;6339693;22;19907;-78
2022/06/22 09:42:05;;;;;;;;;;;27.90;72.80;;;;;;6338846;22;19910;-78
2022/06/22 09:44:34;;;;;;;;;;;27.90;71.80;;;;;;6339366;22;19899;-78
2022/06/22 09:47:26;;;;;;;;;;;27.90;71.40;;;;;;6338553;22;19969;-78
2022/06/22 09:50:03;;;;;;;;;;;27.80;71.60;;;;;;6299157;22;19909;-78
2022/06/22 09:52:35;;;;;;;;;;;27.70;71.30;;;;;;6337127;22;19947;-79
2022/06/22 09:58:06;;;;;;;;;;;27.50;72.40;;;;;;6339465;22;19951;-78
2022/06/22 10:00:43;;;;;;;;;;;27.60;72.40;;;;;;6338201;22;19906;-78
2022/06/22 10:03:23;;;;;;;;;;;27.60;71.80;;;;;;6338327;22;20301;-78
2022/06/22 10:06:13;;;;;;;;;;;27.60;71.30;;;;;;6311653;22;19977;-78
2022/06/22 10:08:47;;;;;;;;;;;27.70;71.70;;;;;;6339223;22;19899;-78
2022/06/22 10:11:19;;;;;;;;;;;27.80;72.10;;;;;;6305310;22;19899;-78
2022/06/22 10:13:47;;;;;;;;;;;27.80;70.20;;;;;;6339673;22;19902;-78
2022/06/22 10:16:33;;;;;;;;;;;27.90;71.00;;;;;;6340876;22;20217;-78
2022/06/22 10:19:22;;;;;;;;;;;28.00;71.10;;;;;;6340456;22;19903;-78
2022/06/22 10:21:59;;;;;;;;;;;28.10;70.20;;;;;;6327174;22;20221;-78
2022/06/22 10:24:52;;;;;;;;;;;28.20;69.80;;;;;;6340662;22;19979;-78
2022/06/22 10:27:27;;;;;;;;;;;28.20;70.50;;;;;;6339968;22;19903;-77
2022/06/22 10:29:53;;;;;;;;;;;28.30;70.90;;;;;;6312640;22;19936;-81
2022/06/22 10:32:30;;;;;;;;;;;28.30;71.00;;;;;;6341077;22;19905;-78
2022/06/22 10:35:14;;;;;;;;;;;28.40;70.10;;;;;;6313720;22;19899;-78
2022/06/22 10:37:58;;;;;;;;;;;28.50;69.50;;;;;;6332604;22;19976;-78
2022/06/22 10:46:38;;;;;;;;;;;28.80;67.40;;;;;;6339893;22;19944;-79
2022/06/22 10:49:03;;;;;;;;;;;28.90;68.20;;;;;;6312631;22;20224;-79
2022/06/22 10:51:48;;;;;;;;;;;28.90;68.40;;;;;;6340533;22;19934;-78
2022/06/22 10:54:19;;;;;;;;;;;29.00;66.50;;;;;;6340644;22;20213;-79
2022/06/22 10:56:57;;;;;;;;;;;29.00;65.60;;;;;;6340001;22;19898;-78
2022/06/22 10:59:22;;;;;;;;;;;29.00;65.70;;;;;;6340081;22;19929;-78
2022/06/22 11:01:50;;;;;;;;;;;29.00;65.30;;;;;;6339864;22;20695;-79
2022/06/22 11:04:16;;;;;;;;;;;29.00;65.30;;;;;;6340462;22;19905;-78
2022/06/22 11:06:42;;;;;;;;;;;29.00;64.60;;;;;;6339951;22;19938;-79
2022/06/22 11:09:36;;;;;;;;;;;29.00;65.20;;;;;;6340017;22;19899;-78
2022/06/22 11:12:28;;;;;;;;;;;29.00;64.60;;;;;;6319847;22;19974;-78
2022/06/22 11:15:12;;;;;;;;;;;29.00;64.20;;;;;;6303124;22;19899;-79
2022/06/22 11:17:49;;;;;;;;;;;28.90;64.60;;;;;;6341041;22;19902;-78
2022/06/22 11:20:32;;;;;;;;;;;28.90;63.20;;;;;;6340349;22;19907;-78
2022/06/22 11:23:03;;;;;;;;;;;28.90;63.90;;;;;;6339807;22;19963;-78
2022/06/22 11:31:32;;;;;;;;;;;28.90;63.60;;;;;;6340806;22;19945;-79
2022/06/22 11:34:13;;;;;;;;;;;29.00;64.50;;;;;;6340256;22;19905;-78
2022/06/22 11:36:58;;;;;;;;;;;29.00;64.50;;;;;;6340327;22;19902;-78
2022/06/22 11:39:32;;;;;;;;;;;29.20;63.80;;;;;;6340413;22;19903;-78
2022/06/22 11:42:03;;;;;;;;;;;29.30;64.00;;;;;;6339783;22;20362;-78
2022/06/22 11:45:49;;;;;;;;;;;29.30;63.10;;;;;;6340270;22;20291;-78
2022/06/22 11:47:53;;;;;;;;;;;29.30;63.90;;;;;;6339811;22;19934;-78
2022/06/22 11:50:39;;;;;;;;;;;29.30;64.00;;;;;;6322985;22;19898;-78
2022/06/22 11:53:04;;;;;;;;;;;29.30;63.50;;;;;;6340421;22;19906;-78
2022/06/22 11:55:40;;;;;;;;;;;29.40;63.70;;;;;;6340534;22;19898;-78
2022/06/22 11:58:08;;;;;;;;;;;29.40;63.40;;;;;;6340291;22;19943;-78
2022/06/22 12:00:52;;;;;;;;;;;29.30;62.20;;;;;;6340158;22;19940;-78
2022/06/22 12:03:39;;;;;;;;;;;29.30;63.40;;;;;;6340319;22;19898;-78
2022/06/22 12:06:11;;;;;;;;;;;29.30;62.20;;;;;;6339795;22;19926;-78
2022/06/22 12:08:37;;;;;;;;;;;29.30;63.20;;;;;;6339858;22;19902;-78
2022/06/22 12:11:05;;;;;;;;;;;29.50;62.80;;;;;;6340231;22;19899;-78
2022/06/22 12:13:33;;;;;;;;;;;29.30;61.60;;;;;;6339673;22;19898;-78
2022/06/22 12:16:17;;;;;;;;;;;29.30;61.80;;;;;;6339716;22;19899;-78
2022/06/22 12:19:01;;;;;;;;;;;29.50;62.50;;;;;;6340332;22;19909;-78
2022/06/22 12:21:33;;;;;;;;;;;29.70;62.50;;;;;;6312794;22;19898;-78
2022/06/22 12:24:07;;;;;;;;;;;29.60;60.30;;;;;;6340439;22;19985;-78
2022/06/22 12:26:46;;;;;;;;;;;29.80;61.80;;;;;;6340197;22;19936;-78
2022/06/22 12:29:24;;;;;;;;;;;29.80;61.30;;;;;;6340198;22;19899;-78
2022/06/22 12:31:58;;;;;;;;;;;29.90;61.80;;;;;;6340033;22;20258;-78
2022/06/22 12:34:31;;;;;;;;;;;30.00;62.20;;;;;;6339586;22;19898;-78
2022/06/22 12:36:58;;;;;;;;;;;30.20;61.60;;;;;;6339822;22;19905;-78
2022/06/22 12:39:38;;;;;;;;;;;30.50;60.90;;;;;;6312194;22;19906;-78
2022/06/22 12:42:29;;;;;;;;;;;30.50;59.20;;;;;;6339781;22;19910;-78
2022/06/22 12:44:58;;;;;;;;;;;30.80;60.50;;;;;;6339915;22;19975;-78
2022/06/22 12:47:26;;;;;;;;;;;31.10;60.40;;;;;;6340356;22;19898;-78
2022/06/22 12:50:24;;;;;;;;;;;31.30;60.60;;;;;;6339580;22;19905;-78
2022/06/22 12:53:01;;;;;;;;;;;31.10;57.90;;;;;;6288234;22;19899;-78
2022/06/22 12:55:39;;;;;;;;;;;31.10;59.40;;;;;;6312027;22;19933;-78
2022/06/22 12:58:11;;;;;;;;;;;30.80;60.00;;;;;;6339590;22;19964;-78
2022/06/22 13:00:37;;;;;;;;;;;30.70;61.40;;;;;;6340019;22;19909;-78
2022/06/22 13:03:03;;;;;;;;;;;30.70;61.60;;;;;;6339946;22;19899;-79
2022/06/22 13:05:31;;;;;;;;;;;31.10;61.80;;;;;;6340133;22;19898;-78
2022/06/22 13:07:58;;;;;;;;;;;31.30;61.70;;;;;;6333443;22;19906;-78
2022/06/22 13:10:25;;;;;;;;;;;31.60;61.00;;;;;;6309762;22;19902;-79
2022/06/22 13:13:01;;;;;;;;;;;31.90;60.10;;;;;;6338947;22;19977;-78
2022/06/22 13:15:31;;;;;;;;;;;32.10;59.40;;;;;;6332365;22;19909;-79
2022/06/22 13:18:06;;;;;;;;;;;32.30;59.20;;;;;;6338136;22;20372;-79
2022/06/22 13:20:35;;;;;;;;;;;32.40;58.40;;;;;;6338815;22;19977;-79
2022/06/22 13:23:10;;;;;;;;;;;32.40;57.80;;;;;;6338806;22;19905;-79
2022/06/22 13:25:42;;;;;;;;;;;32.40;57.60;;;;;;6338752;22;19906;-78
2022/06/22 13:28:10;;;;;;;;;;;32.40;58.20;;;;;;6339508;22;19906;-78
2022/06/22 13:30:38;;;;;;;;;;;32.40;58.10;;;;;;6339249;22;19906;-78
2022/06/22 13:33:03;;;;;;;;;;;32.60;58.20;;;;;;6338535;22;19903;-79
2022/06/22 13:35:35;;;;;;;;;;;32.70;58.50;;;;;;6339273;22;19937;-79
2022/06/22 13:38:39;;;;;;;;;;;33.00;57.00;;;;;;6339153;22;19957;-78
2022/06/22 13:41:07;;;;;;;;;;;33.10;56.40;;;;;;6243137;23;19963;-79
2022/06/22 13:43:34;;;;;;;;;;;33.20;55.50;;;;;;6217419;23;19915;-79
2022/06/22 13:46:08;;;;;;;;;;;33.20;55.60;;;;;;6289545;22;19898;-78
2022/06/22 13:48:46;;;;;;;;;;;33.10;55.40;;;;;;6338848;22;19906;-79
2022/06/22 13:51:34;;;;;;;;;;;32.90;54.60;;;;;;6338444;22;19903;-79
2022/06/22 13:54:00;;;;;;;;;;;32.70;54.20;;;;;;6310667;22;20332;-78
2022/06/22 13:56:50;;;;;;;;;;;32.60;55.20;;;;;;6339105;22;19974;-78
2022/06/22 13:59:20;;;;;;;;;;;32.40;54.80;;;;;;6326347;22;19907;-78
2022/06/22 14:01:50;;;;;;;;;;;32.40;54.80;;;;;;6338504;22;19906;-78
2022/06/22 14:04:18;;;;;;;;;;;32.40;54.70;;;;;;6338374;22;19913;-78
2022/06/22 14:06:51;;;;;;;;;;;32.40;53.00;;;;;;6338420;22;19903;-78
2022/06/22 14:09:17;;;;;;;;;;;32.40;53.90;;;;;;6310850;22;19898;-78
2022/06/22 14:11:51;;;;;;;;;;;32.50;54.40;;;;;;6338493;22;19909;-77
2022/06/22 14:14:22;;;;;;;;;;;32.50;53.70;;;;;;6311114;22;19902;-77
2022/06/22 14:16:51;;;;;;;;;;;32.60;54.60;;;;;;6338792;22;19955;-78
2022/06/22 14:19:19;;;;;;;;;;;32.60;54.90;;;;;;6338065;22;19902;-78
2022/06/22 14:21:48;;;;;;;;;;;32.60;54.70;;;;;;6337979;22;20279;-78
2022/06/22 14:24:16;;;;;;;;;;;32.50;55.20;;;;;;6311326;22;19930;-77
2022/06/22 14:26:56;;;;;;;;;;;32.40;55.20;;;;;;6310817;22;19944;-77
2022/06/22 14:29:21;;;;;;;;;;;32.40;54.80;;;;;;6338154;22;20309;-77
2022/06/22 14:32:02;;;;;;;;;;;32.30;54.10;;;;;;6337259;22;19906;-77
2022/06/22 14:34:28;;;;;;;;;;;32.30;54.60;;;;;;6336632;22;19947;-77
2022/06/22 14:36:57;;;;;;;;;;;32.20;54.80;;;;;;6336123;22;19903;-79
2022/06/22 14:39:34;;;;;;;;;;;32.10;55.10;;;;;;6336849;22;20032;-79
2022/06/22 14:42:11;;;;;;;;;;;32.10;55.10;;;;;;6308819;22;19910;-78
2022/06/22 14:44:40;;;;;;;;;;;32.00;55.90;;;;;;6309418;22;19971;-78
2022/06/22 14:47:29;;;;;;;;;;;32.00;55.50;;;;;;6336744;22;19905;-78
2022/06/22 14:49:55;;;;;;;;;;;32.00;55.20;;;;;;6339327;22;19899;-79
2022/06/22 14:52:39;;;;;;;;;;;31.90;54.70;;;;;;6339124;22;19905;-78